Time;durP1;ratioP1;P1;durP2;ratioP2;P2;SDS_P1;SDS_P2;PMS_P1;PMS_P2;Temp;Humidity;BMP_temperature;BMP_pressure;BME280_temperature;BME280_humidity;BME280_pressure;Samples;Min_cycle;Max_cycle;Signal;HPM_P1;HPM_P2
2023/10/16 00:00:55;;;;;;;8.60;2.25;;;8.30;99.90;;;;;;5115391;28;20046;-72
2023/10/16 00:03:22;;;;;;;5.97;2.00;;;8.30;99.90;;;;;;5081662;28;20040;-72
2023/10/16 00:05:51;;;;;;;6.75;2.65;;;8.30;99.90;;;;;;5117131;28;20083;-72
2023/10/16 00:08:18;;;;;;;6.13;2.33;;;8.30;99.90;;;;;;5081625;28;20044;-71
2023/10/16 00:10:58;;;;;;;5.18;2.00;;;8.30;99.90;;;;;;5079711;28;20092;-71
2023/10/16 00:13:28;;;;;;;9.02;2.60;;;8.30;99.90;;;;;;5097139;28;20048;-71
2023/10/16 00:15:58;;;;;;;6.25;2.35;;;8.30;99.90;;;;;;5096422;28;20066;-71
2023/10/16 00:18:35;;;;;;;5.68;2.00;;;8.30;99.90;;;;;;5115116;28;20050;-71
2023/10/16 00:21:05;;;;;;;5.47;2.40;;;8.30;99.90;;;;;;5096768;28;20128;-71
2023/10/16 00:23:40;;;;;;;7.70;3.05;;;8.30;99.90;;;;;;5095645;28;20458;-74
2023/10/16 00:26:21;;;;;;;6.55;3.00;;;8.20;99.90;;;;;;5097124;28;20044;-74
2023/10/16 00:28:48;;;;;;;12.20;4.13;;;8.20;99.90;;;;;;5096414;28;20039;-73
2023/10/16 00:31:22;;;;;;;7.03;4.28;;;8.20;99.90;;;;;;5096921;28;20405;-74
2023/10/16 00:33:50;;;;;;;11.18;3.75;;;8.20;99.90;;;;;;5080298;28;20042;-73
2023/10/16 00:36:17;;;;;;;8.63;3.75;;;8.20;99.90;;;;;;5114882;28;20043;-75
2023/10/16 00:38:48;;;;;;;6.45;2.85;;;8.20;99.90;;;;;;5096081;28;20058;-74
2023/10/16 00:43:40;;;;;;;6.35;2.50;;;8.20;99.90;;;;;;5114366;28;20120;-74
2023/10/16 00:46:09;;;;;;;6.57;3.00;;;8.20;99.90;;;;;;5096469;28;20090;-74
2023/10/16 00:48:39;;;;;;;5.65;2.53;;;8.20;99.90;;;;;;5096322;28;20485;-74
2023/10/16 00:51:08;;;;;;;8.30;3.20;;;8.20;99.90;;;;;;5095970;28;20040;-74
2023/10/16 00:53:36;;;;;;;10.32;3.90;;;8.20;99.90;;;;;;5095661;28;20048;-74
2023/10/16 00:56:08;;;;;;;9.75;4.03;;;8.20;99.90;;;;;;5114070;28;20047;-73
2023/10/16 00:58:37;;;;;;;8.13;3.60;;;8.20;99.90;;;;;;5114607;28;20109;-74
2023/10/16 01:01:12;;;;;;;7.60;4.00;;;8.20;99.90;;;;;;5095635;28;20036;-72
2023/10/16 01:03:40;;;;;;;;;;;8.20;99.90;;;;;;5096925;28;20086;-73
2023/10/16 01:06:09;;;;;;;9.57;4.15;;;8.30;99.90;;;;;;5114051;28;20075;-75
2023/10/16 01:08:37;;;;;;;7.38;3.63;;;8.30;99.90;;;;;;5079337;28;20104;-73
2023/10/16 01:11:03;;;;;;;9.20;3.00;;;8.30;99.90;;;;;;5113659;28;20171;-74
2023/10/16 01:13:29;;;;;;;6.50;3.05;;;8.30;99.90;;;;;;5079325;28;20039;-73
2023/10/16 01:15:56;;;;;;;12.30;3.28;;;8.30;99.90;;;;;;5113554;28;20431;-73
2023/10/16 01:18:23;;;;;;;6.63;2.33;;;8.30;99.90;;;;;;5114071;28;20044;-73
2023/10/16 01:20:50;;;;;;;8.05;2.10;;;8.30;99.90;;;;;;5113618;28;20048;-74
2023/10/16 01:23:23;;;;;;;4.97;2.95;;;8.30;99.90;;;;;;5095616;28;20083;-77
2023/10/16 01:25:49;;;;;;;8.73;3.15;;;8.30;99.90;;;;;;5095196;28;20039;-75
2023/10/16 01:28:16;;;;;;;10.90;4.38;;;8.30;99.90;;;;;;5095788;28;20048;-78
2023/10/16 01:30:49;;;;;;;13.10;5.00;;;8.30;99.90;;;;;;5095679;28;20043;-78
2023/10/16 01:33:19;;;;;;;8.30;4.30;;;8.30;99.90;;;;;;5078548;28;20104;-78
2023/10/16 01:35:46;;;;;;;5.95;3.20;;;8.40;99.90;;;;;;5113229;28;20481;-72
2023/10/16 01:38:16;;;;;;;7.82;3.03;;;8.40;99.90;;;;;;5113305;28;20515;-74
2023/10/16 01:40:47;;;;;;;8.35;2.47;;;8.40;99.90;;;;;;5113823;28;20052;-75
2023/10/16 01:43:16;;;;;;;9.20;2.20;;;8.30;99.90;;;;;;5113270;28;20047;-76
2023/10/16 01:45:52;;;;;;;4.03;2.20;;;8.30;99.90;;;;;;5095598;28;20108;-75
2023/10/16 01:48:21;;;;;;;5.28;2.20;;;8.30;99.90;;;;;;5113717;28;20050;-75
2023/10/16 01:50:50;;;;;;;6.15;2.13;;;8.30;99.90;;;;;;5113015;28;20044;-73
2023/10/16 01:53:25;;;;;;;6.78;2.30;;;8.20;99.90;;;;;;5112206;28;20102;-75
2023/10/16 01:55:54;;;;;;;7.07;2.47;;;8.20;99.90;;;;;;5095043;28;20059;-73
2023/10/16 01:58:24;;;;;;;4.35;1.90;;;8.10;99.90;;;;;;5095308;28;20040;-74
2023/10/16 02:00:52;;;;;;;6.15;2.05;;;8.10;99.90;;;;;;5094700;28;20123;-73
2023/10/16 02:03:19;;;;;;;4.05;1.90;;;8.10;99.90;;;;;;5094783;28;20195;-73
2023/10/16 02:05:46;;;;;;;4.03;1.77;;;8.10;99.90;;;;;;5113072;28;20047;-74
2023/10/16 02:08:15;;;;;;;5.68;1.90;;;8.10;99.90;;;;;;5094651;28;20044;-73
2023/10/16 02:10:44;;;;;;;10.15;2.40;;;8.00;99.90;;;;;;5094913;28;20043;-73
2023/10/16 02:13:11;;;;;;;5.05;1.55;;;8.00;99.90;;;;;;5112479;28;20641;-75
2023/10/16 02:15:37;;;;;;;4.03;1.60;;;8.00;99.90;;;;;;5078093;28;20047;-74
2023/10/16 02:18:18;;;;;;;6.68;1.45;;;8.00;99.90;;;;;;5112544;28;20075;-72
2023/10/16 02:20:49;;;;;;;7.20;1.67;;;8.00;99.90;;;;;;5095112;28;20066;-73
2023/10/16 02:23:15;;;;;;;5.75;1.50;;;8.00;99.90;;;;;;5094583;28;20108;-73
2023/10/16 02:25:41;;;;;;;5.47;1.58;;;8.00;99.90;;;;;;5078300;28;20163;-72
2023/10/16 02:28:08;;;;;;;5.10;1.88;;;8.00;99.90;;;;;;5111980;28;20044;-73
2023/10/16 02:30:41;;;;;;;4.38;1.80;;;8.00;99.90;;;;;;5094551;28;20392;-73
2023/10/16 02:33:15;;;;;;;4.45;1.90;;;8.00;99.90;;;;;;5111995;28;20043;-73
2023/10/16 02:35:42;;;;;;;9.65;1.83;;;8.00;99.90;;;;;;5094340;28;20047;-73
2023/10/16 02:38:12;;;;;;;3.95;1.63;;;7.90;99.90;;;;;;5077578;28;20048;-72
2023/10/16 02:40:39;;;;;;;5.07;1.50;;;7.90;99.90;;;;;;5112496;28;20224;-73
2023/10/16 02:43:13;;;;;;;5.18;1.40;;;7.90;99.90;;;;;;5094128;28;20047;-73
2023/10/16 02:45:51;;;;;;;5.35;2.13;;;7.80;99.90;;;;;;5112426;28;20058;-73
2023/10/16 02:48:19;;;;;;;6.25;1.50;;;7.80;99.90;;;;;;5094265;28;20079;-73
2023/10/16 02:50:54;;;;;;;3.40;1.58;;;7.80;99.90;;;;;;5094329;28;20066;-73
2023/10/16 02:53:28;;;;;;;8.82;1.83;;;7.80;99.90;;;;;;5093518;28;20140;-73
2023/10/16 02:55:58;;;;;;;;;;;7.80;99.90;;;;;;5093389;28;20502;-73
2023/10/16 02:58:26;;;;;;;5.75;1.50;;;7.80;99.90;;;;;;5111958;28;19926;-74
2023/10/16 03:01:12;;;;;;;6.22;1.52;;;7.80;99.90;;;;;;5093175;28;20118;-74
2023/10/16 03:03:42;;;;;;;5.95;2.28;;;7.80;99.90;;;;;;5096101;28;20143;-74
2023/10/16 03:06:09;;;;;;;6.75;2.72;;;7.90;99.90;;;;;;5098106;28;20131;-74
2023/10/16 03:08:36;;;;;;;8.00;3.22;;;7.90;99.90;;;;;;5116377;28;20047;-74
2023/10/16 03:11:13;;;;;;;6.10;3.20;;;7.90;99.90;;;;;;5098113;28;20053;-74
2023/10/16 03:13:50;;;;;;;6.22;2.78;;;7.90;99.90;;;;;;5098302;28;20047;-74
2023/10/16 03:16:26;;;;;;;9.68;2.70;;;7.90;99.90;;;;;;5097676;28;20052;-74
2023/10/16 03:19:16;;;;;;;5.63;2.60;;;7.90;99.90;;;;;;5097989;28;20039;-74
2023/10/16 03:21:40;;;;;;;3.83;2.17;;;8.00;99.90;;;;;;5097391;28;20112;-73
2023/10/16 03:24:08;;;;;;;5.25;2.28;;;7.90;99.90;;;;;;5097732;28;20409;-73
2023/10/16 03:26:34;;;;;;;7.88;2.50;;;8.00;99.90;;;;;;5081772;28;20047;-73
2023/10/16 03:29:04;;;;;;;6.90;2.20;;;8.00;99.90;;;;;;5115618;28;20142;-70
2023/10/16 03:31:30;;;;;;;4.97;1.70;;;8.00;99.90;;;;;;5098482;28;20047;-77
2023/10/16 03:33:56;;;;;;;6.70;1.73;;;8.00;99.90;;;;;;5116013;28;20500;-78
2023/10/16 03:36:25;;;;;;;4.63;1.42;;;8.10;99.90;;;;;;5097551;28;20047;-79
2023/10/16 03:38:51;;;;;;;8.30;1.60;;;8.10;99.90;;;;;;5115781;28;20083;-78
2023/10/16 03:43:56;;;;;;;9.65;2.13;;;8.10;99.90;;;;;;5115825;28;20067;-76
2023/10/16 03:46:26;;;;;;;5.85;1.77;;;8.10;99.90;;;;;;5096877;28;20050;-74
2023/10/16 03:48:52;;;;;;;5.03;1.77;;;8.10;99.90;;;;;;5115692;28;20051;-75
2023/10/16 03:51:18;;;;;;;3.63;1.42;;;8.10;99.90;;;;;;5115178;28;20104;-76
2023/10/16 03:53:44;;;;;;;4.47;1.80;;;8.10;99.90;;;;;;5115797;28;20063;-74
2023/10/16 03:56:13;;;;;;;5.70;1.50;;;8.10;99.90;;;;;;5115237;28;20603;-76
2023/10/16 03:58:43;;;;;;;5.13;1.50;;;8.00;99.90;;;;;;5115621;28;20047;-75
2023/10/16 04:01:13;;;;;;;5.40;1.83;;;8.10;99.90;;;;;;5097568;28;20177;-75
2023/10/16 04:03:57;;;;;;;6.35;1.60;;;8.10;99.90;;;;;;5096686;28;20043;-73
2023/10/16 04:06:24;;;;;;;11.15;2.15;;;8.10;99.90;;;;;;5097059;28;20054;-74
2023/10/16 04:08:55;;;;;;;4.93;1.63;;;8.10;99.90;;;;;;5114814;28;20058;-74
2023/10/16 04:11:24;;;;;;;8.27;1.73;;;8.20;99.90;;;;;;5114745;28;20090;-74
2023/10/16 04:13:52;;;;;;;8.20;1.95;;;8.20;99.90;;;;;;5080178;28;20074;-74
2023/10/16 04:24:31;;;;;;;7.88;3.38;;;8.20;99.90;;;;;;5114699;28;20457;-73
2023/10/16 04:29:46;;;;;;;7.72;2.80;;;8.20;99.90;;;;;;5114451;28;20047;-73
2023/10/16 04:32:37;;;;;;;6.32;3.08;;;8.30;99.90;;;;;;5096673;28;20473;-74
2023/10/16 04:36:47;;;;;;;6.30;2.10;;;8.30;99.90;;;;;;5114253;28;20046;-75
2023/10/16 04:37:55;;;;;;;7.32;1.90;;;8.30;99.90;;;;;;5103005;28;20048;-80
2023/10/16 04:43:19;;;;;;;5.57;1.52;;;8.30;99.90;;;;;;5114651;28;20447;-78
2023/10/16 04:46:15;;;;;;;10.50;2.20;;;8.30;99.90;;;;;;5081241;28;20044;-77
2023/10/16 04:48:48;;;;;;;9.18;1.88;;;8.30;99.90;;;;;;5114332;28;20097;-76
2023/10/16 04:51:19;;;;;;;8.25;2.25;;;8.30;99.90;;;;;;5078701;28;20396;-74
2023/10/16 04:53:58;;;;;;;5.75;1.52;;;8.30;99.90;;;;;;5113996;28;20056;-77
2023/10/16 04:59:37;;;;;;;7.97;1.95;;;8.30;99.90;;;;;;5095949;28;20051;-72
2023/10/16 05:02:11;;;;;;;8.65;1.50;;;8.30;99.90;;;;;;5113600;28;20055;-74
2023/10/16 05:04:59;;;;;;;8.52;1.50;;;8.30;99.90;;;;;;5113160;28;20478;-74
2023/10/16 05:07:45;;;;;;;5.05;1.83;;;8.30;99.90;;;;;;5095691;28;20401;-74
2023/10/16 05:10:51;;;;;;;8.63;1.67;;;8.20;99.90;;;;;;5095795;28;20183;-74
2023/10/16 05:13:37;;;;;;;4.32;1.60;;;8.20;99.90;;;;;;5082599;28;20469;-74
2023/10/16 05:19:30;;;;;;;8.80;1.80;;;8.30;99.90;;;;;;4994494;28;20189;-74
2023/10/16 06:14:14;;;;;;;6.00;2.80;;;8.30;99.90;;;;;;5095025;28;20138;-74
2023/10/16 06:16:41;;;;;;;7.93;2.40;;;8.30;99.90;;;;;;5112644;28;20052;-74
2023/10/16 06:19:19;;;;;;;8.38;2.75;;;8.20;99.90;;;;;;5094860;28;20051;-74
2023/10/16 06:21:54;;;;;;;9.38;2.78;;;8.30;99.90;;;;;;5078907;28;20111;-73
2023/10/16 06:26:59;;;;;;;7.90;2.75;;;8.30;99.90;;;;;;5094810;28;20043;-75
2023/10/16 06:29:34;;;;;;;7.65;2.65;;;8.30;99.90;;;;;;5112230;28;20480;-72
2023/10/16 06:32:21;;;;;;;8.07;2.28;;;8.30;99.90;;;;;;5094621;28;20043;-75
2023/10/16 06:34:47;;;;;;;6.85;2.72;;;8.40;99.90;;;;;;5079162;28;20112;-74
2023/10/16 06:37:16;;;;;;;4.70;2.10;;;8.40;99.90;;;;;;5112931;28;20435;-74
2023/10/16 06:39:46;;;;;;;6.38;2.25;;;8.40;99.90;;;;;;5118621;28;20043;-74
2023/10/16 06:42:17;;;;;;;8.02;2.80;;;8.40;99.90;;;;;;5101361;28;20062;-74
2023/10/16 06:44:50;;;;;;;6.40;2.70;;;8.50;99.90;;;;;;5100765;28;20493;-75
2023/10/16 06:47:17;;;;;;;6.03;2.38;;;8.40;99.90;;;;;;5101271;28;20043;-74
2023/10/16 06:49:43;;;;;;;8.90;2.67;;;8.50;99.90;;;;;;5100739;28;20059;-73
2023/10/16 06:52:12;;;;;;;7.70;2.60;;;8.50;99.90;;;;;;5083800;28;20226;-73
2023/10/16 06:54:39;;;;;;;6.03;2.80;;;8.50;99.90;;;;;;5119205;28;20401;-73
2023/10/16 06:57:12;;;;;;;5.78;2.90;;;8.50;99.90;;;;;;5101393;28;20066;-74
2023/10/16 06:59:41;;;;;;;10.95;2.75;;;8.50;99.90;;;;;;5084001;28;20055;-75
2023/10/16 07:02:15;;;;;;;9.02;3.17;;;8.60;99.90;;;;;;5119233;28;20051;-74
2023/10/16 07:04:44;;;;;;;6.90;2.55;;;8.60;99.90;;;;;;5100857;28;20109;-78
2023/10/16 07:07:17;;;;;;;6.28;2.90;;;8.60;99.90;;;;;;5119273;28;20044;-77
2023/10/16 07:09:54;;;;;;;7.55;2.92;;;8.70;99.90;;;;;;5083644;28;20492;-75
2023/10/16 07:12:20;;;;;;;9.65;3.20;;;8.70;99.90;;;;;;5101160;28;20047;-74
2023/10/16 07:15:01;;;;;;;11.13;3.50;;;8.70;99.90;;;;;;5083782;28;20048;-74
2023/10/16 07:17:28;;;;;;;8.13;2.60;;;8.80;99.90;;;;;;5101234;28;20052;-73
2023/10/16 07:19:59;;;;;;;8.15;3.20;;;8.70;99.90;;;;;;5100485;28;20062;-74
2023/10/16 07:22:32;;;;;;;9.73;2.72;;;8.80;99.90;;;;;;5119036;28;20050;-74
2023/10/16 07:27:45;;;;;;;9.93;2.92;;;8.70;99.90;;;;;;5100768;28;20043;-73
2023/10/16 07:30:21;;;;;;;13.07;2.80;;;8.80;99.90;;;;;;5118858;28;20036;-73
2023/10/16 07:32:51;;;;;;;7.50;2.90;;;8.80;99.90;;;;;;5068569;28;20131;-73
2023/10/16 07:35:21;;;;;;;10.85;3.03;;;8.80;99.90;;;;;;5100883;28;20047;-73
2023/10/16 07:37:48;;;;;;;7.63;2.72;;;8.90;99.90;;;;;;5118556;28;20066;-74
2023/10/16 07:40:21;;;;;;;6.63;2.58;;;9.00;99.90;;;;;;5100906;28;20499;-74
2023/10/16 07:42:47;;;;;;;9.02;2.55;;;9.00;99.90;;;;;;5100769;28;20087;-73
2023/10/16 07:45:13;;;;;;;10.23;2.55;;;9.10;99.90;;;;;;5118956;28;20155;-73
2023/10/16 07:47:39;;;;;;;8.13;2.80;;;9.10;99.90;;;;;;5100534;28;20083;-74
2023/10/16 07:50:07;;;;;;;7.65;2.63;;;9.20;99.90;;;;;;5116637;28;20079;-73
2023/10/16 07:52:34;;;;;;;10.35;2.55;;;9.30;99.90;;;;;;5115480;28;20462;-73
2023/10/16 07:55:02;;;;;;;6.57;2.00;;;9.30;99.90;;;;;;5096933;28;20051;-74
2023/10/16 07:57:28;;;;;;;9.30;2.28;;;9.30;99.90;;;;;;5097605;28;20048;-74
2023/10/16 07:59:54;;;;;;;4.95;1.67;;;9.40;99.90;;;;;;5115130;28;20048;-73
2023/10/16 08:02:23;;;;;;;6.65;1.98;;;9.40;99.90;;;;;;5097152;28;20043;-75
2023/10/16 08:04:51;;;;;;;5.47;1.75;;;9.40;99.90;;;;;;5114749;28;20526;-74
2023/10/16 08:07:40;;;;;;;7.15;2.25;;;9.50;99.90;;;;;;5097763;28;20089;-74
2023/10/16 08:12:50;;;;;;;9.18;1.90;;;9.60;99.90;;;;;;5096759;28;20071;-76
2023/10/16 08:15:21;;;;;;;7.68;2.25;;;9.70;99.90;;;;;;5096237;28;20104;-75
2023/10/16 08:17:47;;;;;;;10.13;2.50;;;9.80;99.90;;;;;;5096051;28;20039;-77
2023/10/16 08:20:17;;;;;;;16.77;2.42;;;9.80;99.90;;;;;;5096176;28;20053;-76
2023/10/16 08:22:47;;;;;;;8.90;2.35;;;9.90;99.90;;;;;;5114624;28;20461;-74
2023/10/16 08:25:31;;;;;;;12.35;2.30;;;9.90;99.90;;;;;;5096760;28;20541;-75
2023/10/16 08:28:00;;;;;;;8.93;2.40;;;10.00;99.90;;;;;;5081962;28;20040;-76
2023/10/16 08:30:49;;;;;;;10.13;2.10;;;10.10;99.90;;;;;;5114596;28;20047;-75
2023/10/16 08:33:17;;;;;;;7.45;2.05;;;10.20;99.90;;;;;;5066411;28;20087;-76
2023/10/16 08:35:45;;;;;;;5.68;1.92;;;10.30;99.90;;;;;;5096279;28;20126;-75
2023/10/16 08:38:14;;;;;;;9.48;1.88;;;10.40;99.90;;;;;;5096494;28;20054;-77
2023/10/16 08:40:44;;;;;;;12.10;2.55;;;10.50;99.90;;;;;;5096432;28;20052;-74
2023/10/16 08:43:16;;;;;;;7.15;2.13;;;10.70;99.90;;;;;;5114602;28;20044;-73
2023/10/16 08:45:49;;;;;;;8.50;2.90;;;11.00;99.90;;;;;;5114697;28;20044;-75
2023/10/16 08:48:18;;;;;;;8.25;3.65;;;11.10;99.90;;;;;;5094732;28;20096;-75
2023/10/16 08:50:57;;;;;;;12.45;3.03;;;11.20;99.90;;;;;;5095307;28;20404;-73
2023/10/16 08:53:35;;;;;;;9.32;2.35;;;11.30;99.90;;;;;;5080564;28;20058;-74
2023/10/16 08:56:12;;;;;;;5.20;1.50;;;11.50;99.90;;;;;;5096249;28;20141;-75
2023/10/16 08:58:40;;;;;;;5.10;1.77;;;11.50;99.90;;;;;;5079096;28;20489;-75
2023/10/16 09:01:07;;;;;;;9.18;1.90;;;11.50;99.90;;;;;;5095415;28;20641;-75
2023/10/16 09:03:56;;;;;;;6.70;1.88;;;11.40;99.90;;;;;;5113674;28;20044;-79
2023/10/16 09:06:23;;;;;;;5.90;1.40;;;11.30;99.90;;;;;;5096044;28;20585;-76
2023/10/16 09:08:54;;;;;;;7.30;1.52;;;11.30;99.90;;;;;;5095554;28;20120;-76
2023/10/16 09:11:21;;;;;;;6.65;1.63;;;11.20;99.90;;;;;;5095779;28;20047;-76
2023/10/16 09:13:51;;;;;;;4.65;1.48;;;11.20;99.90;;;;;;5113839;28;20059;-73
2023/10/16 09:16:23;;;;;;;5.97;1.40;;;11.10;99.90;;;;;;5113702;28;20052;-86
2023/10/16 09:18:53;;;;;;;6.05;1.52;;;11.10;99.90;;;;;;5095312;28;20130;-70
2023/10/16 09:21:23;;;;;;;4.72;1.75;;;11.20;99.90;;;;;;5078815;28;20388;-80
2023/10/16 09:23:52;;;;;;;5.90;1.90;;;11.20;99.90;;;;;;5079318;28;20366;-75
2023/10/16 09:26:23;;;;;;;9.90;1.90;;;11.40;99.90;;;;;;5113473;28;20051;-75
2023/10/16 09:28:52;;;;;;;6.18;1.70;;;11.50;99.90;;;;;;5095522;28;20079;-74
2023/10/16 09:31:21;;;;;;;6.43;2.00;;;11.60;99.90;;;;;;5113773;28;20044;-78
2023/10/16 09:33:50;;;;;;;7.10;1.80;;;11.70;99.90;;;;;;5095626;28;20070;-79
2023/10/16 09:36:17;;;;;;;4.32;1.40;;;11.70;99.90;;;;;;5112912;28;20485;-77
2023/10/16 09:38:51;;;;;;;9.13;1.85;;;11.80;99.90;;;;;;5095535;28;20052;-75
2023/10/16 09:41:38;;;;;;;5.75;1.70;;;11.80;99.90;;;;;;5113477;28;20047;-76
2023/10/16 09:44:23;;;;;;;6.50;1.75;;;11.90;99.90;;;;;;5094943;28;20043;-76
2023/10/16 09:46:53;;;;;;;8.07;1.70;;;11.90;99.90;;;;;;5095091;28;20063;-76
2023/10/16 09:49:24;;;;;;;5.43;1.60;;;12.10;99.90;;;;;;5094940;28;20089;-78
2023/10/16 09:52:03;;;;;;;2.67;1.10;;;12.00;99.90;;;;;;5113497;28;20039;-77
2023/10/16 09:54:30;;;;;;;4.95;1.60;;;12.10;99.90;;;;;;5094890;28;20093;-73
2023/10/16 09:56:59;;;;;;;4.82;1.40;;;12.00;99.90;;;;;;5112433;28;20096;-71
2023/10/16 09:59:33;;;;;;;4.47;1.30;;;12.10;99.90;;;;;;5094450;28;20047;-74
2023/10/16 10:02:10;;;;;;;4.80;1.60;;;12.20;99.90;;;;;;5077398;28;20063;-75
2023/10/16 10:04:40;;;;;;;5.55;1.30;;;12.20;99.90;;;;;;5095173;28;20065;-74
2023/10/16 10:07:34;;;;;;;4.40;1.67;;;12.20;99.90;;;;;;5093644;28;20062;-73
2023/10/16 10:10:39;;;;;;;8.15;1.83;;;12.20;99.90;;;;;;5093671;28;20528;-75
2023/10/16 10:12:49;;;;;;;3.60;1.35;;;12.30;99.90;;;;;;5093837;28;20055;-76
2023/10/16 10:15:23;;;;;;;6.65;1.38;;;12.30;99.90;;;;;;5094255;28;20043;-75
2023/10/16 10:17:55;;;;;;;4.57;1.38;;;12.40;99.90;;;;;;5111938;28;20118;-75
2023/10/16 10:20:40;;;;;;;6.00;1.60;;;12.40;99.90;;;;;;5112029;28;20173;-74
2023/10/16 10:23:08;;;;;;;5.47;1.42;;;12.40;99.90;;;;;;5079698;28;20091;-74
2023/10/16 10:25:36;;;;;;;5.00;1.40;;;12.40;99.90;;;;;;5112906;28;20052;-74
2023/10/16 10:28:09;;;;;;;4.25;1.80;;;12.40;99.90;;;;;;5112246;28;20040;-81
2023/10/16 10:30:43;;;;;;;3.17;0.93;;;12.50;99.90;;;;;;5094642;28;20040;-80
2023/10/16 10:33:11;;;;;;;4.25;1.10;;;12.50;99.90;;;;;;5093657;28;20288;-76
2023/10/16 10:35:43;;;;;;;3.58;1.08;;;12.50;99.90;;;;;;5077719;28;20138;-79
2023/10/16 10:38:24;;;;;;;3.95;1.00;;;12.50;99.90;;;;;;5112014;28;20046;-81
2023/10/16 10:41:11;;;;;;;3.35;1.17;;;12.50;99.90;;;;;;5093858;28;20048;-75
2023/10/16 10:43:48;;;;;;;4.80;1.10;;;12.40;99.90;;;;;;5077448;28;20049;-82
2023/10/16 10:46:26;;;;;;;3.30;0.90;;;12.40;99.90;;;;;;5094310;28;20062;-81
2023/10/16 10:48:56;;;;;;;5.38;1.30;;;12.40;99.90;;;;;;5094748;28;20040;-81
2023/10/16 10:51:22;;;;;;;4.75;1.40;;;12.50;99.90;;;;;;5112011;28;20127;-80
2023/10/16 10:53:58;;;;;;;5.70;1.70;;;12.60;99.90;;;;;;5112447;28;20485;-78
2023/10/16 10:56:48;;;;;;;7.05;1.48;;;12.70;99.90;;;;;;5112042;28;20043;-81
2023/10/16 10:59:40;;;;;;;4.95;1.63;;;12.80;99.90;;;;;;5094020;28;20058;-77
2023/10/16 11:03:04;;;;;;;6.50;1.60;;;12.80;99.90;;;;;;5111939;28;20043;-75
2023/10/16 11:04:59;;;;;;;5.72;1.55;;;12.80;99.90;;;;;;5080480;28;20466;-76
2023/10/16 11:07:39;;;;;;;4.43;1.50;;;12.80;99.90;;;;;;5093354;28;20083;-77
2023/10/16 11:10:06;;;;;;;8.20;1.60;;;12.80;99.90;;;;;;5093804;28;20127;-76
2023/10/16 11:12:32;;;;;;;5.57;1.60;;;12.90;99.90;;;;;;5077442;28;20052;-77
2023/10/16 11:15:01;;;;;;;3.55;1.35;;;12.90;99.90;;;;;;5094253;28;20081;-76
2023/10/16 11:17:34;;;;;;;4.05;1.40;;;12.90;99.90;;;;;;5093766;28;20058;-77
2023/10/16 11:20:27;;;;;;;9.32;1.58;;;12.90;99.90;;;;;;5111994;28;20040;-76
2023/10/16 11:22:58;;;;;;;4.93;1.50;;;13.00;99.90;;;;;;5111946;28;20055;-77
2023/10/16 11:25:30;;;;;;;7.55;1.42;;;13.10;99.90;;;;;;5096278;28;20641;-77
2023/10/16 11:28:07;;;;;;;6.65;2.03;;;13.10;99.90;;;;;;5114793;28;20048;-76
2023/10/16 11:30:38;;;;;;;11.93;1.83;;;13.20;99.90;;;;;;5097674;28;20442;-75
2023/10/16 11:33:04;;;;;;;7.28;1.52;;;13.20;99.90;;;;;;5097633;28;20406;-76
2023/10/16 11:35:34;;;;;;;8.40;2.10;;;13.10;99.90;;;;;;5097520;28;20043;-76
2023/10/16 11:38:04;;;;;;;6.28;1.70;;;13.20;99.90;;;;;;5097025;28;20043;-76
2023/10/16 11:40:39;;;;;;;8.25;1.73;;;13.10;99.90;;;;;;5113108;28;20044;-77
2023/10/16 11:43:12;;;;;;;7.13;1.40;;;13.20;99.90;;;;;;5115179;28;20054;-76
2023/10/16 11:45:39;;;;;;;3.65;1.27;;;13.10;99.90;;;;;;5113846;28;20162;-74
2023/10/16 11:51:15;;;;;;;4.28;1.30;;;13.20;99.90;;;;;;5093201;28;20380;-75
2023/10/16 11:53:41;;;;;;;4.25;1.20;;;13.20;99.90;;;;;;5096928;28;20123;-75
2023/10/16 11:56:09;;;;;;;4.78;1.52;;;13.10;99.90;;;;;;5080678;28;20464;-76
2023/10/16 11:58:38;;;;;;;5.97;1.60;;;13.10;99.90;;;;;;5115366;28;20050;-75
2023/10/16 12:01:10;;;;;;;5.35;1.50;;;13.10;99.90;;;;;;5115205;28;20084;-74
2023/10/16 12:03:37;;;;;;;7.50;1.88;;;13.20;99.90;;;;;;5064494;28;20048;-75
2023/10/16 12:06:13;;;;;;;10.43;1.63;;;13.20;99.90;;;;;;5097263;28;20052;-75
2023/10/16 12:08:44;;;;;;;7.13;1.40;;;13.30;99.90;;;;;;5115276;28;20400;-75
2023/10/16 12:11:14;;;;;;;6.47;1.40;;;13.20;99.90;;;;;;5114488;28;20055;-75
2023/10/16 12:13:43;;;;;;;5.55;1.50;;;13.20;99.90;;;;;;5078659;28;20054;-77
2023/10/16 12:16:09;;;;;;;6.95;1.38;;;13.10;99.90;;;;;;5114969;28;20044;-76
2023/10/16 12:18:34;;;;;;;8.50;2.10;;;13.10;99.90;;;;;;5078737;28;20055;-74
2023/10/16 12:21:06;;;;;;;4.13;1.60;;;13.00;99.90;;;;;;5078702;28;20126;-75
2023/10/16 12:23:38;;;;;;;6.05;1.30;;;13.00;99.90;;;;;;5096399;28;20044;-75
2023/10/16 12:26:05;;;;;;;12.15;1.92;;;13.00;99.90;;;;;;5078797;28;20048;-77
2023/10/16 12:28:32;;;;;;;5.57;1.75;;;13.00;99.90;;;;;;5094270;28;20056;-73
2023/10/16 12:30:58;;;;;;;6.63;1.73;;;13.00;99.90;;;;;;5078987;28;20051;-73
2023/10/16 12:33:27;;;;;;;8.13;1.67;;;13.00;99.90;;;;;;5094632;28;20101;-74
2023/10/16 12:35:56;;;;;;;6.32;1.42;;;13.10;99.90;;;;;;5113170;28;20044;-74
2023/10/16 12:38:23;;;;;;;8.38;1.70;;;13.20;99.90;;;;;;5078789;28;20044;-73
2023/10/16 12:40:58;;;;;;;4.20;1.40;;;13.20;99.90;;;;;;5114638;28;20079;-74
2023/10/16 12:43:27;;;;;;;4.72;1.60;;;13.20;99.90;;;;;;5079320;28;20134;-73
2023/10/16 12:45:56;;;;;;;5.70;1.48;;;13.30;99.90;;;;;;5079743;28;20048;-73
2023/10/16 12:48:23;;;;;;;7.00;1.52;;;13.30;99.90;;;;;;5112809;28;20051;-74
2023/10/16 12:50:49;;;;;;;4.60;1.42;;;13.30;99.90;;;;;;5114214;28;20126;-74
2023/10/16 12:53:15;;;;;;;5.95;1.63;;;13.30;99.90;;;;;;5113316;28;20138;-74
2023/10/16 12:55:42;;;;;;;7.43;1.67;;;13.30;99.90;;;;;;5093390;28;20513;-75
2023/10/16 12:58:13;;;;;;;7.22;1.83;;;13.30;99.90;;;;;;5079041;28;20047;-73
2023/10/16 13:00:39;;;;;;;5.13;1.33;;;13.30;99.90;;;;;;5113508;28;20036;-75
2023/10/16 13:03:14;;;;;;;4.43;1.35;;;13.30;99.90;;;;;;5077854;28;20172;-74
2023/10/16 13:05:42;;;;;;;5.72;1.40;;;13.20;99.90;;;;;;5078234;28;20047;-75
2023/10/16 13:08:09;;;;;;;7.35;1.30;;;13.30;99.90;;;;;;5095850;28;20051;-75
2023/10/16 13:10:36;;;;;;;6.72;1.63;;;13.30;99.90;;;;;;5094449;28;20035;-75
2023/10/16 13:13:02;;;;;;;5.78;1.50;;;13.30;99.90;;;;;;5113759;28;20500;-75
2023/10/16 13:15:31;;;;;;;6.32;1.42;;;13.30;99.90;;;;;;5113077;28;20048;-74
2023/10/16 13:17:58;;;;;;;6.95;1.27;;;13.40;99.90;;;;;;5113498;28;20055;-75
2023/10/16 13:20:28;;;;;;;6.55;1.50;;;13.40;99.90;;;;;;5093200;28;20476;-74
2023/10/16 13:22:55;;;;;;;6.75;1.30;;;13.40;99.90;;;;;;5095696;28;20047;-75
2023/10/16 13:25:22;;;;;;;4.95;1.50;;;13.40;99.90;;;;;;5110828;28;20059;-75
2023/10/16 13:27:48;;;;;;;6.65;1.42;;;13.40;99.90;;;;;;5095793;28;20069;-74
2023/10/16 13:30:16;;;;;;;8.07;1.60;;;13.40;99.90;;;;;;5078586;28;20135;-77
2023/10/16 13:32:46;;;;;;;3.90;1.20;;;13.40;99.90;;;;;;5095006;28;20055;-76
2023/10/16 13:35:16;;;;;;;4.50;1.10;;;13.50;99.90;;;;;;5095452;28;20105;-77
2023/10/16 13:37:44;;;;;;;8.10;1.42;;;13.50;99.90;;;;;;5113833;28;20040;-76
2023/10/16 13:40:20;;;;;;;6.38;1.35;;;13.50;99.90;;;;;;5113510;28;20051;-76
2023/10/16 13:42:55;;;;;;;5.20;1.52;;;13.50;99.90;;;;;;5095750;28;20142;-76
2023/10/16 13:45:22;;;;;;;7.20;1.48;;;13.40;99.90;;;;;;5061816;28;20047;-78
2023/10/16 13:47:49;;;;;;;3.58;1.30;;;13.40;99.90;;;;;;5095243;28;20050;-77
2023/10/16 13:50:17;;;;;;;6.38;1.42;;;13.40;99.90;;;;;;5113267;28;20036;-78
2023/10/16 13:52:46;;;;;;;3.72;1.23;;;13.40;99.90;;;;;;5094659;28;20404;-77
2023/10/16 13:55:12;;;;;;;12.45;1.58;;;13.40;99.90;;;;;;5113620;28;20055;-78
2023/10/16 13:57:42;;;;;;;8.70;1.40;;;13.40;99.90;;;;;;5095149;28;20101;-77
2023/10/16 14:00:12;;;;;;;4.80;1.58;;;13.30;99.90;;;;;;5095629;28;20063;-76
2023/10/16 14:02:37;;;;;;;5.80;1.40;;;13.30;99.90;;;;;;5112869;28;20055;-78
2023/10/16 14:05:06;;;;;;;8.93;1.27;;;13.30;99.90;;;;;;5113344;28;20542;-77
2023/10/16 14:07:33;;;;;;;5.53;1.10;;;13.30;99.90;;;;;;5095198;28;20047;-76
2023/10/16 14:09:59;;;;;;;6.85;1.48;;;13.30;99.90;;;;;;5095243;28;20043;-78
2023/10/16 14:12:28;;;;;;;5.38;1.20;;;13.20;99.90;;;;;;5094761;28;20083;-77
2023/10/16 14:14:54;;;;;;;4.85;1.10;;;13.20;99.90;;;;;;5062038;28;20134;-76
2023/10/16 14:17:20;;;;;;;5.45;1.23;;;13.20;99.90;;;;;;5094779;28;20126;-77
2023/10/16 14:19:49;;;;;;;3.17;1.02;;;13.20;99.90;;;;;;5077845;28;20044;-78
2023/10/16 14:22:20;;;;;;;4.22;1.02;;;13.20;99.90;;;;;;5095147;28;20044;-77
2023/10/16 14:24:46;;;;;;;5.43;1.27;;;13.20;99.90;;;;;;5112267;28;20055;-78
2023/10/16 14:27:24;;;;;;;8.95;1.35;;;13.20;99.90;;;;;;5112883;28;20138;-77
2023/10/16 14:29:58;;;;;;;5.28;1.30;;;13.30;99.90;;;;;;5062981;28;20153;-78
2023/10/16 14:32:24;;;;;;;5.18;1.20;;;13.20;99.90;;;;;;5094801;28;20464;-79
2023/10/16 14:34:50;;;;;;;3.25;1.13;;;13.20;99.90;;;;;;5077860;28;20083;-78
2023/10/16 14:37:16;;;;;;;2.90;1.05;;;13.20;99.90;;;;;;5112693;28;20386;-77
2023/10/16 14:39:46;;;;;;;5.63;0.95;;;13.20;99.90;;;;;;5094286;28;20044;-78
2023/10/16 14:42:11;;;;;;;5.68;1.10;;;13.10;99.90;;;;;;5094998;28;20046;-77